sensor_id;sensor_type;location;lat;lon;timestamp;temperature;humidity
29813;DHT22;16707;48.106;11.548;2022-12-16T00:01:10;1.70;99.90
29813;DHT22;16707;48.106;11.548;2022-12-16T00:03:38;1.60;99.90
29813;DHT22;16707;48.106;11.548;2022-12-16T00:06:11;1.70;99.90
29813;DHT22;16707;48.106;11.548;2022-12-16T00:08:39;1.70;99.90
29813;DHT22;16707;48.106;11.548;2022-12-16T00:11:06;1.70;99.90
29813;DHT22;16707;48.106;11.548;2022-12-16T00:13:35;1.50;99.90
29813;DHT22;16707;48.106;11.548;2022-12-16T00:16:03;1.30;99.90
29813;DHT22;16707;48.106;11.548;2022-12-16T00:18:34;1.40;99.90
29813;DHT22;16707;48.106;11.548;2022-12-16T00:21:04;1.50;99.90
29813;DHT22;16707;48.106;11.548;2022-12-16T00:23:35;1.50;99.90
29813;DHT22;16707;48.106;11.548;2022-12-16T00:26:04;1.50;99.90
29813;DHT22;16707;48.106;11.548;2022-12-16T00:28:31;1.50;99.90
29813;DHT22;16707;48.106;11.548;2022-12-16T00:31:00;1.60;99.90
29813;DHT22;16707;48.106;11.548;2022-12-16T00:33:28;1.60;99.90
29813;DHT22;16707;48.106;11.548;2022-12-16T00:35:55;1.70;99.90
29813;DHT22;16707;48.106;11.548;2022-12-16T00:38:25;1.50;99.90
29813;DHT22;16707;48.106;11.548;2022-12-16T00:40:53;1.50;99.90
29813;DHT22;16707;48.106;11.548;2022-12-16T00:43:20;1.50;99.90
29813;DHT22;16707;48.106;11.548;2022-12-16T00:45:47;1.60;99.90
29813;DHT22;16707;48.106;11.548;2022-12-16T00:48:15;1.50;99.90
29813;DHT22;16707;48.106;11.548;2022-12-16T00:50:49;1.60;99.90
29813;DHT22;16707;48.106;11.548;2022-12-16T00:53:17;1.70;99.90
29813;DHT22;16707;48.106;11.548;2022-12-16T00:55:44;1.60;99.90
29813;DHT22;16707;48.106;11.548;2022-12-16T00:58:22;1.50;99.90
29813;DHT22;16707;48.106;11.548;2022-12-16T01:00:53;1.50;99.90
29813;DHT22;16707;48.106;11.548;2022-12-16T01:03:20;1.70;99.90
29813;DHT22;16707;48.106;11.548;2022-12-16T01:05:51;1.60;99.90
29813;DHT22;16707;48.106;11.548;2022-12-16T01:08:18;1.50;99.90
29813;DHT22;16707;48.106;11.548;2022-12-16T01:10:52;1.60;99.90
29813;DHT22;16707;48.106;11.548;2022-12-16T01:13:24;1.60;99.90
29813;DHT22;16707;48.106;11.548;2022-12-16T01:15:51;1.50;99.90
29813;DHT22;16707;48.106;11.548;2022-12-16T01:18:19;1.60;99.90
29813;DHT22;16707;48.106;11.548;2022-12-16T01:20:48;1.60;99.90
29813;DHT22;16707;48.106;11.548;2022-12-16T01:23:18;1.60;99.90
29813;DHT22;16707;48.106;11.548;2022-12-16T01:25:45;1.60;99.90
29813;DHT22;16707;48.106;11.548;2022-12-16T01:28:17;1.60;99.90
29813;DHT22;16707;48.106;11.548;2022-12-16T01:30:45;1.70;99.90
29813;DHT22;16707;48.106;11.548;2022-12-16T01:33:15;1.70;99.90
29813;DHT22;16707;48.106;11.548;2022-12-16T01:35:42;1.70;99.90
29813;DHT22;16707;48.106;11.548;2022-12-16T01:38:09;1.60;99.90
29813;DHT22;16707;48.106;11.548;2022-12-16T01:40:36;1.60;99.90
29813;DHT22;16707;48.106;11.548;2022-12-16T01:43:09;1.60;99.90
29813;DHT22;16707;48.106;11.548;2022-12-16T01:45:37;1.60;99.90
29813;DHT22;16707;48.106;11.548;2022-12-16T01:48:17;1.60;99.90
29813;DHT22;16707;48.106;11.548;2022-12-16T01:50:47;1.70;99.90
29813;DHT22;16707;48.106;11.548;2022-12-16T01:53:15;1.80;99.90
29813;DHT22;16707;48.106;11.548;2022-12-16T01:55:47;1.80;99.90
29813;DHT22;16707;48.106;11.548;2022-12-16T01:58:17;1.80;99.90
29813;DHT22;16707;48.106;11.548;2022-12-16T02:00:47;1.80;99.90
29813;DHT22;16707;48.106;11.548;2022-12-16T02:03:16;1.70;99.90
29813;DHT22;16707;48.106;11.548;2022-12-16T02:05:46;1.60;99.90
29813;DHT22;16707;48.106;11.548;2022-12-16T02:08:15;1.50;99.90
29813;DHT22;16707;48.106;11.548;2022-12-16T02:10:54;1.40;99.90
29813;DHT22;16707;48.106;11.548;2022-12-16T02:13:30;1.50;99.90
29813;DHT22;16707;48.106;11.548;2022-12-16T02:16:06;1.50;99.90
29813;DHT22;16707;48.106;11.548;2022-12-16T02:18:47;1.40;99.90
29813;DHT22;16707;48.106;11.548;2022-12-16T02:21:25;1.40;99.90
29813;DHT22;16707;48.106;11.548;2022-12-16T02:24:16;1.30;99.90
29813;DHT22;16707;48.106;11.548;2022-12-16T02:27:13;1.50;99.90
29813;DHT22;16707;48.106;11.548;2022-12-16T02:30:05;1.60;99.90
29813;DHT22;16707;48.106;11.548;2022-12-16T02:32:47;1.50;99.90
29813;DHT22;16707;48.106;11.548;2022-12-16T02:35:26;1.50;99.90
29813;DHT22;16707;48.106;11.548;2022-12-16T02:38:04;1.60;99.90
29813;DHT22;16707;48.106;11.548;2022-12-16T02:40:41;1.80;99.90
29813;DHT22;16707;48.106;11.548;2022-12-16T02:43:33;1.60;99.90
29813;DHT22;16707;48.106;11.548;2022-12-16T02:46:08;1.60;99.90
29813;DHT22;16707;48.106;11.548;2022-12-16T02:48:37;1.60;99.90
29813;DHT22;16707;48.106;11.548;2022-12-16T02:51:08;1.60;99.90
29813;DHT22;16707;48.106;11.548;2022-12-16T02:53:37;1.60;99.90
29813;DHT22;16707;48.106;11.548;2022-12-16T02:56:17;1.70;99.90
29813;DHT22;16707;48.106;11.548;2022-12-16T02:59:09;1.70;99.90
29813;DHT22;16707;48.106;11.548;2022-12-16T03:01:49;1.70;99.90
29813;DHT22;16707;48.106;11.548;2022-12-16T03:04:29;1.60;99.90
29813;DHT22;16707;48.106;11.548;2022-12-16T03:07:03;1.50;99.90
29813;DHT22;16707;48.106;11.548;2022-12-16T03:09:34;1.50;99.90
29813;DHT22;16707;48.106;11.548;2022-12-16T03:12:06;1.50;99.90
29813;DHT22;16707;48.106;11.548;2022-12-16T03:14:44;1.50;99.90
29813;DHT22;16707;48.106;11.548;2022-12-16T03:17:15;1.30;99.90
29813;DHT22;16707;48.106;11.548;2022-12-16T03:19:53;1.50;99.90
29813;DHT22;16707;48.106;11.548;2022-12-16T03:22:25;1.40;99.90
29813;DHT22;16707;48.106;11.548;2022-12-16T03:24:54;1.40;99.90
29813;DHT22;16707;48.106;11.548;2022-12-16T03:27:28;1.40;99.90
29813;DHT22;16707;48.106;11.548;2022-12-16T03:30:01;1.20;99.90
29813;DHT22;16707;48.106;11.548;2022-12-16T03:32:34;1.30;99.90
29813;DHT22;16707;48.106;11.548;2022-12-16T03:35:13;1.40;99.90
29813;DHT22;16707;48.106;11.548;2022-12-16T03:37:50;1.10;99.90
29813;DHT22;16707;48.106;11.548;2022-12-16T03:40:20;1.10;99.90
29813;DHT22;16707;48.106;11.548;2022-12-16T03:42:52;0.70;99.90
29813;DHT22;16707;48.106;11.548;2022-12-16T03:45:24;0.50;99.90
29813;DHT22;16707;48.106;11.548;2022-12-16T03:48:02;0.50;99.90
29813;DHT22;16707;48.106;11.548;2022-12-16T03:50:35;0.40;99.90
29813;DHT22;16707;48.106;11.548;2022-12-16T03:53:05;0.50;99.90
29813;DHT22;16707;48.106;11.548;2022-12-16T03:55:35;0.50;99.90
29813;DHT22;16707;48.106;11.548;2022-12-16T03:58:02;0.50;99.90
29813;DHT22;16707;48.106;11.548;2022-12-16T04:00:30;0.40;99.90
29813;DHT22;16707;48.106;11.548;2022-12-16T04:03:10;0.30;99.90
29813;DHT22;16707;48.106;11.548;2022-12-16T04:05:40;0.30;99.90
29813;DHT22;16707;48.106;11.548;2022-12-16T04:08:08;0.20;99.90
29813;DHT22;16707;48.106;11.548;2022-12-16T04:10:35;0.40;99.90
29813;DHT22;16707;48.106;11.548;2022-12-16T04:13:19;0.40;99.90
29813;DHT22;16707;48.106;11.548;2022-12-16T04:16:03;0.50;99.90
29813;DHT22;16707;48.106;11.548;2022-12-16T04:18:51;0.40;99.90
29813;DHT22;16707;48.106;11.548;2022-12-16T04:21:37;0.30;99.90
29813;DHT22;16707;48.106;11.548;2022-12-16T04:24:30;0.40;99.90
29813;DHT22;16707;48.106;11.548;2022-12-16T04:26:58;0.40;99.90
29813;DHT22;16707;48.106;11.548;2022-12-16T04:29:42;0.30;99.90
29813;DHT22;16707;48.106;11.548;2022-12-16T04:32:24;0.20;99.90
29813;DHT22;16707;48.106;11.548;2022-12-16T04:34:51;0.50;99.90
29813;DHT22;16707;48.106;11.548;2022-12-16T04:37:22;0.40;99.90
29813;DHT22;16707;48.106;11.548;2022-12-16T04:40:07;0.50;99.90
29813;DHT22;16707;48.106;11.548;2022-12-16T04:42:58;0.20;99.90
29813;DHT22;16707;48.106;11.548;2022-12-16T04:46:05;0.10;99.90
29813;DHT22;16707;48.106;11.548;2022-12-16T04:48:52;0.00;99.90
29813;DHT22;16707;48.106;11.548;2022-12-16T04:51:37;0.00;99.90
29813;DHT22;16707;48.106;11.548;2022-12-16T04:54:26;-0.10;99.90
29813;DHT22;16707;48.106;11.548;2022-12-16T04:57:13;-0.10;99.90
29813;DHT22;16707;48.106;11.548;2022-12-16T04:59:58;-0.20;99.90
29813;DHT22;16707;48.106;11.548;2022-12-16T05:02:42;-0.10;99.90
29813;DHT22;16707;48.106;11.548;2022-12-16T05:05:26;0.00;99.90
29813;DHT22;16707;48.106;11.548;2022-12-16T05:08:10;0.10;99.90
29813;DHT22;16707;48.106;11.548;2022-12-16T05:10:52;0.00;99.90
29813;DHT22;16707;48.106;11.548;2022-12-16T05:13:37;0.10;99.90
29813;DHT22;16707;48.106;11.548;2022-12-16T05:16:22;0.10;99.90
29813;DHT22;16707;48.106;11.548;2022-12-16T05:19:05;0.10;99.90
29813;DHT22;16707;48.106;11.548;2022-12-16T05:21:50;0.20;99.90
29813;DHT22;16707;48.106;11.548;2022-12-16T05:24:34;0.00;99.90
29813;DHT22;16707;48.106;11.548;2022-12-16T05:27:21;0.00;99.90
29813;DHT22;16707;48.106;11.548;2022-12-16T05:30:09;-0.10;99.90
29813;DHT22;16707;48.106;11.548;2022-12-16T05:32:54;0.00;99.90
29813;DHT22;16707;48.106;11.548;2022-12-16T05:35:38;0.10;99.90
29813;DHT22;16707;48.106;11.548;2022-12-16T05:38:22;0.10;99.90
29813;DHT22;16707;48.106;11.548;2022-12-16T05:41:11;-0.10;99.90
29813;DHT22;16707;48.106;11.548;2022-12-16T05:43:56;0.00;99.90
29813;DHT22;16707;48.106;11.548;2022-12-16T05:46:41;0.00;99.90
29813;DHT22;16707;48.106;11.548;2022-12-16T05:49:25;0.00;99.90
29813;DHT22;16707;48.106;11.548;2022-12-16T05:52:10;0.10;99.90
29813;DHT22;16707;48.106;11.548;2022-12-16T05:54:54;-0.10;99.90
29813;DHT22;16707;48.106;11.548;2022-12-16T05:57:38;0.10;99.90
29813;DHT22;16707;48.106;11.548;2022-12-16T06:00:24;0.10;99.90
29813;DHT22;16707;48.106;11.548;2022-12-16T06:03:08;0.00;99.90
29813;DHT22;16707;48.106;11.548;2022-12-16T06:05:56;0.00;99.90
29813;DHT22;16707;48.106;11.548;2022-12-16T06:08:43;0.10;99.90
29813;DHT22;16707;48.106;11.548;2022-12-16T06:11:35;0.10;99.90
29813;DHT22;16707;48.106;11.548;2022-12-16T06:14:20;0.20;99.90
29813;DHT22;16707;48.106;11.548;2022-12-16T06:17:05;0.20;99.90
29813;DHT22;16707;48.106;11.548;2022-12-16T06:19:49;0.30;99.90
29813;DHT22;16707;48.106;11.548;2022-12-16T06:22:33;0.40;99.90
29813;DHT22;16707;48.106;11.548;2022-12-16T06:25:17;0.40;99.90
29813;DHT22;16707;48.106;11.548;2022-12-16T06:28:02;0.10;99.90
29813;DHT22;16707;48.106;11.548;2022-12-16T06:30:47;0.10;99.90
29813;DHT22;16707;48.106;11.548;2022-12-16T06:33:33;0.00;99.90
29813;DHT22;16707;48.106;11.548;2022-12-16T06:36:17;0.00;99.90
29813;DHT22;16707;48.106;11.548;2022-12-16T06:39:02;0.00;99.90
29813;DHT22;16707;48.106;11.548;2022-12-16T06:41:46;0.00;99.90
29813;DHT22;16707;48.106;11.548;2022-12-16T06:44:31;-0.10;99.90
29813;DHT22;16707;48.106;11.548;2022-12-16T06:47:15;-0.10;99.90
29813;DHT22;16707;48.106;11.548;2022-12-16T06:50:01;-0.10;99.90
29813;DHT22;16707;48.106;11.548;2022-12-16T06:52:52;0.00;99.90
29813;DHT22;16707;48.106;11.548;2022-12-16T06:55:39;-0.10;99.90
29813;DHT22;16707;48.106;11.548;2022-12-16T06:58:29;-0.20;99.90
29813;DHT22;16707;48.106;11.548;2022-12-16T07:01:14;-0.20;99.90
29813;DHT22;16707;48.106;11.548;2022-12-16T07:03:58;-0.10;99.90
29813;DHT22;16707;48.106;11.548;2022-12-16T07:06:44;-0.20;99.90
29813;DHT22;16707;48.106;11.548;2022-12-16T07:09:28;-0.10;99.90
29813;DHT22;16707;48.106;11.548;2022-12-16T07:12:13;-0.10;99.90
29813;DHT22;16707;48.106;11.548;2022-12-16T07:14:57;0.00;99.90
29813;DHT22;16707;48.106;11.548;2022-12-16T07:17:43;0.00;99.90
29813;DHT22;16707;48.106;11.548;2022-12-16T07:20:28;0.00;99.90
29813;DHT22;16707;48.106;11.548;2022-12-16T07:23:14;0.00;99.90
29813;DHT22;16707;48.106;11.548;2022-12-16T07:25:58;0.00;99.90
29813;DHT22;16707;48.106;11.548;2022-12-16T07:28:43;0.00;99.90
29813;DHT22;16707;48.106;11.548;2022-12-16T07:31:27;-0.10;99.90
29813;DHT22;16707;48.106;11.548;2022-12-16T07:34:11;0.10;99.90
29813;DHT22;16707;48.106;11.548;2022-12-16T07:36:55;0.00;99.90
29813;DHT22;16707;48.106;11.548;2022-12-16T07:39:41;0.00;99.90
29813;DHT22;16707;48.106;11.548;2022-12-16T07:42:40;0.00;99.90
29813;DHT22;16707;48.106;11.548;2022-12-16T07:45:24;0.10;99.90
29813;DHT22;16707;48.106;11.548;2022-12-16T07:48:08;0.20;99.90
29813;DHT22;16707;48.106;11.548;2022-12-16T07:50:52;0.10;99.90
29813;DHT22;16707;48.106;11.548;2022-12-16T07:53:37;0.10;99.90
29813;DHT22;16707;48.106;11.548;2022-12-16T07:56:22;0.20;99.90
29813;DHT22;16707;48.106;11.548;2022-12-16T07:59:07;0.30;99.90
29813;DHT22;16707;48.106;11.548;2022-12-16T08:01:51;0.20;99.90
29813;DHT22;16707;48.106;11.548;2022-12-16T08:04:35;0.20;99.90
29813;DHT22;16707;48.106;11.548;2022-12-16T08:07:20;0.10;99.90
29813;DHT22;16707;48.106;11.548;2022-12-16T08:10:07;0.10;99.90
29813;DHT22;16707;48.106;11.548;2022-12-16T08:12:58;0.00;99.90
29813;DHT22;16707;48.106;11.548;2022-12-16T08:15:44;0.00;99.90
29813;DHT22;16707;48.106;11.548;2022-12-16T08:18:28;0.20;99.90
29813;DHT22;16707;48.106;11.548;2022-12-16T08:21:13;0.10;99.90
29813;DHT22;16707;48.106;11.548;2022-12-16T08:23:57;0.20;99.90
29813;DHT22;16707;48.106;11.548;2022-12-16T08:26:41;0.30;99.90
29813;DHT22;16707;48.106;11.548;2022-12-16T08:29:27;0.30;99.90
29813;DHT22;16707;48.106;11.548;2022-12-16T08:32:12;0.30;99.90
29813;DHT22;16707;48.106;11.548;2022-12-16T08:35:05;0.30;99.90
29813;DHT22;16707;48.106;11.548;2022-12-16T08:37:53;0.30;99.90
29813;DHT22;16707;48.106;11.548;2022-12-16T08:40:38;0.30;99.90
29813;DHT22;16707;48.106;11.548;2022-12-16T08:43:22;0.30;99.90
29813;DHT22;16707;48.106;11.548;2022-12-16T08:46:08;0.30;99.90
29813;DHT22;16707;48.106;11.548;2022-12-16T08:48:53;0.20;99.90
29813;DHT22;16707;48.106;11.548;2022-12-16T08:51:37;0.30;99.90
29813;DHT22;16707;48.106;11.548;2022-12-16T08:54:26;0.40;99.90
29813;DHT22;16707;48.106;11.548;2022-12-16T08:57:10;0.40;99.90
29813;DHT22;16707;48.106;11.548;2022-12-16T08:59:55;0.50;99.90
29813;DHT22;16707;48.106;11.548;2022-12-16T09:02:40;0.70;99.90
29813;DHT22;16707;48.106;11.548;2022-12-16T09:05:24;0.80;99.90
29813;DHT22;16707;48.106;11.548;2022-12-16T09:08:09;0.80;99.90
29813;DHT22;16707;48.106;11.548;2022-12-16T09:10:53;0.80;99.90
29813;DHT22;16707;48.106;11.548;2022-12-16T09:13:37;0.70;99.90
29813;DHT22;16707;48.106;11.548;2022-12-16T09:16:22;0.70;99.90
29813;DHT22;16707;48.106;11.548;2022-12-16T09:19:08;0.70;99.90
29813;DHT22;16707;48.106;11.548;2022-12-16T09:21:53;0.60;99.90
29813;DHT22;16707;48.106;11.548;2022-12-16T09:24:37;0.70;99.90
29813;DHT22;16707;48.106;11.548;2022-12-16T09:27:21;0.60;99.90
29813;DHT22;16707;48.106;11.548;2022-12-16T09:30:06;0.60;99.90
29813;DHT22;16707;48.106;11.548;2022-12-16T09:32:51;0.70;99.90
29813;DHT22;16707;48.106;11.548;2022-12-16T09:35:36;0.70;99.90
29813;DHT22;16707;48.106;11.548;2022-12-16T09:38:21;0.70;99.90
29813;DHT22;16707;48.106;11.548;2022-12-16T09:41:24;0.70;99.90
29813;DHT22;16707;48.106;11.548;2022-12-16T09:44:18;0.70;99.90
29813;DHT22;16707;48.106;11.548;2022-12-16T09:47:09;0.70;99.90
29813;DHT22;16707;48.106;11.548;2022-12-16T09:50:01;0.60;99.90
29813;DHT22;16707;48.106;11.548;2022-12-16T09:52:52;0.70;99.90
29813;DHT22;16707;48.106;11.548;2022-12-16T09:55:42;0.70;99.90
29813;DHT22;16707;48.106;11.548;2022-12-16T09:58:34;0.70;99.90
29813;DHT22;16707;48.106;11.548;2022-12-16T10:01:36;0.60;99.90
29813;DHT22;16707;48.106;11.548;2022-12-16T10:04:21;0.60;99.90
29813;DHT22;16707;48.106;11.548;2022-12-16T10:07:08;0.60;99.90
29813;DHT22;16707;48.106;11.548;2022-12-16T10:10:15;0.60;99.90
29813;DHT22;16707;48.106;11.548;2022-12-16T10:13:06;0.50;99.90
29813;DHT22;16707;48.106;11.548;2022-12-16T10:15:57;0.60;99.90
29813;DHT22;16707;48.106;11.548;2022-12-16T10:18:57;0.50;99.90
29813;DHT22;16707;48.106;11.548;2022-12-16T10:21:48;0.50;99.90
29813;DHT22;16707;48.106;11.548;2022-12-16T10:24:48;0.30;99.90
29813;DHT22;16707;48.106;11.548;2022-12-16T10:27:42;0.30;99.90
29813;DHT22;16707;48.106;11.548;2022-12-16T10:30:27;0.40;99.90
29813;DHT22;16707;48.106;11.548;2022-12-16T10:33:14;0.40;99.90
29813;DHT22;16707;48.106;11.548;2022-12-16T10:35:59;0.30;99.90
29813;DHT22;16707;48.106;11.548;2022-12-16T10:38:45;0.50;99.90
29813;DHT22;16707;48.106;11.548;2022-12-16T10:41:33;0.50;99.90
29813;DHT22;16707;48.106;11.548;2022-12-16T10:44:25;0.40;99.90
29813;DHT22;16707;48.106;11.548;2022-12-16T10:47:15;0.50;99.90
29813;DHT22;16707;48.106;11.548;2022-12-16T10:49:59;0.40;99.90
29813;DHT22;16707;48.106;11.548;2022-12-16T10:52:49;0.40;99.90
29813;DHT22;16707;48.106;11.548;2022-12-16T10:55:46;0.40;99.90
29813;DHT22;16707;48.106;11.548;2022-12-16T10:58:38;0.60;99.90
29813;DHT22;16707;48.106;11.548;2022-12-16T11:01:27;0.60;99.90
29813;DHT22;16707;48.106;11.548;2022-12-16T11:04:30;0.80;99.90
29813;DHT22;16707;48.106;11.548;2022-12-16T11:07:31;0.40;99.90
29813;DHT22;16707;48.106;11.548;2022-12-16T11:10:31;0.50;99.90
29813;DHT22;16707;48.106;11.548;2022-12-16T11:13:20;0.40;99.90
29813;DHT22;16707;48.106;11.548;2022-12-16T11:16:08;0.30;99.90
29813;DHT22;16707;48.106;11.548;2022-12-16T11:18:55;0.30;99.90
29813;DHT22;16707;48.106;11.548;2022-12-16T11:21:40;0.10;99.90
29813;DHT22;16707;48.106;11.548;2022-12-16T11:24:25;0.10;99.90
29813;DHT22;16707;48.106;11.548;2022-12-16T11:27:22;0.30;99.90
29813;DHT22;16707;48.106;11.548;2022-12-16T11:30:17;0.30;99.90
29813;DHT22;16707;48.106;11.548;2022-12-16T11:33:09;0.40;99.90
29813;DHT22;16707;48.106;11.548;2022-12-16T11:36:03;0.30;99.90
29813;DHT22;16707;48.106;11.548;2022-12-16T11:38:49;0.40;99.90
29813;DHT22;16707;48.106;11.548;2022-12-16T11:41:38;0.40;99.90
29813;DHT22;16707;48.106;11.548;2022-12-16T11:44:28;0.70;99.90
29813;DHT22;16707;48.106;11.548;2022-12-16T11:47:19;0.70;99.90
29813;DHT22;16707;48.106;11.548;2022-12-16T11:50:10;0.50;99.90
29813;DHT22;16707;48.106;11.548;2022-12-16T11:52:56;0.50;99.90
29813;DHT22;16707;48.106;11.548;2022-12-16T11:55:44;0.60;99.90
29813;DHT22;16707;48.106;11.548;2022-12-16T11:58:38;0.60;99.90
29813;DHT22;16707;48.106;11.548;2022-12-16T12:01:27;0.60;99.90
29813;DHT22;16707;48.106;11.548;2022-12-16T12:04:15;0.70;99.90
29813;DHT22;16707;48.106;11.548;2022-12-16T12:10:21;0.60;99.90
29813;DHT22;16707;48.106;11.548;2022-12-16T12:13:21;0.60;99.90
29813;DHT22;16707;48.106;11.548;2022-12-16T12:16:15;0.50;99.90
29813;DHT22;16707;48.106;11.548;2022-12-16T12:19:06;0.60;99.90
29813;DHT22;16707;48.106;11.548;2022-12-16T12:21:58;0.60;99.90
29813;DHT22;16707;48.106;11.548;2022-12-16T12:24:49;0.70;99.90
29813;DHT22;16707;48.106;11.548;2022-12-16T12:27:46;0.70;99.90
29813;DHT22;16707;48.106;11.548;2022-12-16T12:30:48;0.80;99.90
29813;DHT22;16707;48.106;11.548;2022-12-16T12:33:50;0.50;99.90
29813;DHT22;16707;48.106;11.548;2022-12-16T12:36:40;0.50;99.90
29813;DHT22;16707;48.106;11.548;2022-12-16T12:39:32;0.60;99.90
29813;DHT22;16707;48.106;11.548;2022-12-16T12:42:25;0.70;99.90
29813;DHT22;16707;48.106;11.548;2022-12-16T12:45:28;0.70;99.90
29813;DHT22;16707;48.106;11.548;2022-12-16T12:48:23;0.60;99.90
29813;DHT22;16707;48.106;11.548;2022-12-16T12:51:12;0.60;99.90
29813;DHT22;16707;48.106;11.548;2022-12-16T12:54:05;0.70;99.90
29813;DHT22;16707;48.106;11.548;2022-12-16T12:56:49;0.40;99.90
29813;DHT22;16707;48.106;11.548;2022-12-16T12:59:44;0.40;99.90
29813;DHT22;16707;48.106;11.548;2022-12-16T13:02:42;0.30;99.90
29813;DHT22;16707;48.106;11.548;2022-12-16T13:05:30;0.30;99.90
29813;DHT22;16707;48.106;11.548;2022-12-16T13:08:53;0.40;99.90
29813;DHT22;16707;48.106;11.548;2022-12-16T13:11:51;0.50;99.90
29813;DHT22;16707;48.106;11.548;2022-12-16T13:14:56;0.60;99.90
29813;DHT22;16707;48.106;11.548;2022-12-16T13:18:18;0.50;99.90
29813;DHT22;16707;48.106;11.548;2022-12-16T13:21:29;0.60;99.90
29813;DHT22;16707;48.106;11.548;2022-12-16T13:24:19;0.60;99.90
29813;DHT22;16707;48.106;11.548;2022-12-16T13:27:12;0.60;99.90
29813;DHT22;16707;48.106;11.548;2022-12-16T13:30:16;0.60;99.90
29813;DHT22;16707;48.106;11.548;2022-12-16T13:33:05;0.60;99.90
29813;DHT22;16707;48.106;11.548;2022-12-16T13:35:53;0.80;99.90
29813;DHT22;16707;48.106;11.548;2022-12-16T13:38:44;0.60;99.90
29813;DHT22;16707;48.106;11.548;2022-12-16T13:41:47;0.50;99.90
29813;DHT22;16707;48.106;11.548;2022-12-16T13:44:55;0.40;99.90
29813;DHT22;16707;48.106;11.548;2022-12-16T13:47:59;0.50;99.90
29813;DHT22;16707;48.106;11.548;2022-12-16T13:50:45;0.40;99.90
29813;DHT22;16707;48.106;11.548;2022-12-16T13:53:32;0.30;99.90
29813;DHT22;16707;48.106;11.548;2022-12-16T13:56:22;0.30;99.90
29813;DHT22;16707;48.106;11.548;2022-12-16T13:59:14;0.20;99.90
29813;DHT22;16707;48.106;11.548;2022-12-16T14:02:02;0.10;99.90
29813;DHT22;16707;48.106;11.548;2022-12-16T14:04:56;0.00;99.90
29813;DHT22;16707;48.106;11.548;2022-12-16T14:07:41;0.10;99.90
29813;DHT22;16707;48.106;11.548;2022-12-16T14:10:27;-0.10;99.90
29813;DHT22;16707;48.106;11.548;2022-12-16T14:13:18;-0.10;99.90
29813;DHT22;16707;48.106;11.548;2022-12-16T14:16:11;-0.10;99.90
29813;DHT22;16707;48.106;11.548;2022-12-16T14:19:11;-0.20;99.90
29813;DHT22;16707;48.106;11.548;2022-12-16T14:22:09;-0.20;99.90
29813;DHT22;16707;48.106;11.548;2022-12-16T14:25:03;-0.30;99.90
29813;DHT22;16707;48.106;11.548;2022-12-16T14:27:48;-0.50;99.90
29813;DHT22;16707;48.106;11.548;2022-12-16T14:30:33;-0.60;99.90
29813;DHT22;16707;48.106;11.548;2022-12-16T14:33:21;-0.60;99.90
29813;DHT22;16707;48.106;11.548;2022-12-16T14:36:19;-0.60;99.90
29813;DHT22;16707;48.106;11.548;2022-12-16T14:39:08;-0.60;99.90
29813;DHT22;16707;48.106;11.548;2022-12-16T14:41:53;-0.70;99.90
29813;DHT22;16707;48.106;11.548;2022-12-16T14:44:38;-0.60;99.90
29813;DHT22;16707;48.106;11.548;2022-12-16T14:47:22;-0.50;99.90
29813;DHT22;16707;48.106;11.548;2022-12-16T14:50:18;-0.50;99.90
29813;DHT22;16707;48.106;11.548;2022-12-16T14:53:15;-0.50;99.90
29813;DHT22;16707;48.106;11.548;2022-12-16T14:56:18;-0.50;99.90
29813;DHT22;16707;48.106;11.548;2022-12-16T14:59:12;-0.50;99.90
29813;DHT22;16707;48.106;11.548;2022-12-16T15:01:58;-0.70;99.90
29813;DHT22;16707;48.106;11.548;2022-12-16T15:04:44;-0.50;99.90
29813;DHT22;16707;48.106;11.548;2022-12-16T15:07:34;-0.50;99.90
29813;DHT22;16707;48.106;11.548;2022-12-16T15:10:23;-0.60;99.90
29813;DHT22;16707;48.106;11.548;2022-12-16T15:13:13;-0.80;99.90
29813;DHT22;16707;48.106;11.548;2022-12-16T15:15:59;-0.50;99.90
29813;DHT22;16707;48.106;11.548;2022-12-16T15:18:45;-0.70;99.90
29813;DHT22;16707;48.106;11.548;2022-12-16T15:21:32;-0.70;99.90
29813;DHT22;16707;48.106;11.548;2022-12-16T15:24:18;-0.70;99.90
29813;DHT22;16707;48.106;11.548;2022-12-16T15:27:14;-0.70;99.90
29813;DHT22;16707;48.106;11.548;2022-12-16T15:30:37;-0.60;99.90
29813;DHT22;16707;48.106;11.548;2022-12-16T15:33:23;-0.80;99.90
29813;DHT22;16707;48.106;11.548;2022-12-16T15:36:19;-0.70;99.90
29813;DHT22;16707;48.106;11.548;2022-12-16T15:39:19;-0.80;99.90
29813;DHT22;16707;48.106;11.548;2022-12-16T15:42:04;-0.80;99.90
29813;DHT22;16707;48.106;11.548;2022-12-16T15:44:50;-0.80;99.90
29813;DHT22;16707;48.106;11.548;2022-12-16T15:47:37;-0.90;99.90
29813;DHT22;16707;48.106;11.548;2022-12-16T15:50:23;-0.80;99.90
29813;DHT22;16707;48.106;11.548;2022-12-16T15:53:28;-0.80;99.90
29813;DHT22;16707;48.106;11.548;2022-12-16T15:56:18;-0.80;99.90
29813;DHT22;16707;48.106;11.548;2022-12-16T15:59:22;-0.80;99.90
29813;DHT22;16707;48.106;11.548;2022-12-16T16:02:14;-0.90;99.90
29813;DHT22;16707;48.106;11.548;2022-12-16T16:05:06;-0.90;99.90
29813;DHT22;16707;48.106;11.548;2022-12-16T16:07:51;-0.90;99.90
29813;DHT22;16707;48.106;11.548;2022-12-16T16:10:36;-1.00;99.90
29813;DHT22;16707;48.106;11.548;2022-12-16T16:13:20;-1.00;99.90
29813;DHT22;16707;48.106;11.548;2022-12-16T16:16:04;-0.90;99.90
29813;DHT22;16707;48.106;11.548;2022-12-16T16:18:49;-0.90;99.90
29813;DHT22;16707;48.106;11.548;2022-12-16T16:21:35;-1.00;99.90
29813;DHT22;16707;48.106;11.548;2022-12-16T16:24:20;-1.00;99.90
29813;DHT22;16707;48.106;11.548;2022-12-16T16:27:08;-1.00;99.90
29813;DHT22;16707;48.106;11.548;2022-12-16T16:29:53;-0.80;99.90
29813;DHT22;16707;48.106;11.548;2022-12-16T16:32:38;-0.90;99.90
29813;DHT22;16707;48.106;11.548;2022-12-16T16:35:22;-0.90;99.90
29813;DHT22;16707;48.106;11.548;2022-12-16T16:38:09;-0.90;99.90
29813;DHT22;16707;48.106;11.548;2022-12-16T16:41:12;-0.90;99.90
29813;DHT22;16707;48.106;11.548;2022-12-16T16:43:57;-0.90;99.90
29813;DHT22;16707;48.106;11.548;2022-12-16T16:46:41;-0.90;99.90
29813;DHT22;16707;48.106;11.548;2022-12-16T16:49:29;-0.80;99.90
29813;DHT22;16707;48.106;11.548;2022-12-16T16:52:16;-0.80;99.90
29813;DHT22;16707;48.106;11.548;2022-12-16T16:55:02;-0.80;99.90
29813;DHT22;16707;48.106;11.548;2022-12-16T16:57:46;-0.80;99.90
29813;DHT22;16707;48.106;11.548;2022-12-16T17:00:31;-0.80;99.90
29813;DHT22;16707;48.106;11.548;2022-12-16T17:03:15;-0.70;99.90
29813;DHT22;16707;48.106;11.548;2022-12-16T17:06:00;-0.80;99.90
29813;DHT22;16707;48.106;11.548;2022-12-16T17:08:44;-0.80;99.90
29813;DHT22;16707;48.106;11.548;2022-12-16T17:11:32;-0.70;99.90
29813;DHT22;16707;48.106;11.548;2022-12-16T17:14:17;-0.70;99.90
29813;DHT22;16707;48.106;11.548;2022-12-16T17:17:03;-0.60;99.90
29813;DHT22;16707;48.106;11.548;2022-12-16T17:19:48;-0.60;99.90